Impacts TAF Board INFO
FOR SITUATIONAL AWARENESS. NOT TO BE USED FOR FLIGHT PLANNING PURPOSES.
IDs:

KSLC - Salt Lake City Intl, UT, US

Issued at 2334 UTC 23 Jan 2018
Updated at 0156 UTC 24 Jan 2018
Potential Impact None Slight Moderate High
Time0154Z 24/02Z 24/03Z 24/04Z 24/05Z 24/06Z 24/07Z 24/08Z 24/09Z 24/10Z 24/11Z 24/12Z 24/13Z 24/14Z>>
Type OBS PRVL PRVL PRVL PRVL PRVL PRVL PRVL PRVL PRVL PRVL PRVL PRVL PRVL
VIS 10 >6 >6 >6 >6 >6 >6 >6 >6 >6 >6 >6 >6 >6
CIG -- 200 200 200 200 200 200 200 200 200 200 200 200 200
Cover FEW BKN BKN BKN BKN BKN BKN BKN BKN BKN BKN BKN BKN BKN
FltCat VFR VFR VFR VFR VFR VFR VFR VFR VFR VFR VFR VFR VFR VFR
WX -- -- -- -- -- -- -- -- -- -- -- -- -- --
WDir VRB 150 150 150 150 150 150 150 150 150 150 150 150 150
WSpd 0 7 7 7 7 7 7 7 11 11 11 11 11 11
WGst -- -- -- -- -- -- -- -- -- -- -- -- -- --

Raw TAF
KSLC 232334Z 2400/2506 30006KT P6SM FEW060 SCT200
  FM240200 15007KT P6SM SCT120 BKN200
  FM240900 15011KT P6SM BKN200
  FM242100 19005KT P6SM BKN200


Raw METAR
KSLC 240154Z 00000KT 10SM FEW200 02/M03 A3031 RMK AO2 SLP276 T00171033
KSLC 240054Z 00000KT 10SM FEW060 FEW200 02/M03 A3031 RMK AO2 SLP276 T00221028
KSLC 232354Z 00000KT 10SM FEW060 FEW200 05/M02 A3032 RMK AO2 SLP266 4/002 T00501022 10067 20022 55003
KSLC 232254Z 00000KT 10SM FEW060 FEW200 07/M03 A3032 RMK AO2 SLP266 T00671033

METAR Board
Radar Display
Forecast Discussion

FOR SITUATIONAL AWARENESS. NOT TO BE USED FOR FLIGHT PLANNING PURPOSES.